Ship Status Report: callsign BAREU51

sailwx.info

Track history (hours):
 
Tides and Currents Weather Stations Pressure Air Temp Water Temp Dewpoint Dewpoint Depression Visibility Wind Speed Wind Dir Waves Ship Positions

Callsign BAREU51 (name unknown)

Last reported at 2014-Oct-23 19:00 UTC. Time now 2014-Oct-23 21:18 UTC.
Position N 44°24' E 008°54'.

Barometer 1010.5 mb
Air temperature 19.3 ° C

Date/timePositionNaut miles runAvg speedWind from/ knotsBaromVisibWave heightAir tempDewpointWater temp
2014-Oct-23 19:00N 44°24' E 008°54'1514.8 1010.5 19.3
2014-Oct-23 18:00N 44°12' E 009°06'2524.7 1009.2 22.2
2014-Oct-23 17:00N 44°00' E 009°36'3030.3 1008.0 22.3
2014-Oct-23 16:00N 43°30' E 009°42'2222.3 1007.6 22.4
2014-Oct-23 15:00N 43°12' E 010°00'3030.0 1007.2 22.6
2014-Oct-23 14:00N 42°42' E 010°00'2424.4 1006.7 20.4
2014-Oct-23 13:00N 42°18' E 009°54'2424.0 1006.8 21.1
2014-Oct-23 12:00N 41°54' E 009°54'3030.3 1009.5 21.1
2014-Oct-23 11:00N 41°24' E 009°48'2424.4 1007.4 18.6
2014-Oct-23 10:00N 41°00' E 009°54'2827.6 1009.1 19.6
2014-Oct-23 09:00N 40°36' E 010°12'2322.6 1009.6 19.0
2014-Oct-23 08:00N 40°18' E 010°30'2625.7 1010.8 18.9
2014-Oct-23 07:00N 40°00' E 010°54'3030.3 1010.6 19.8
2014-Oct-23 06:00N 39°36' E 011°18'1818.4 1010.1 18.8
2014-Oct-23 05:00N 39°24' E 011°36'2322.8 1010.4 18.7
2014-Oct-23 04:00N 39°06' E 011°54'2222.2 1009.9 19.1
2014-Oct-23 03:00N 38°54' E 012°18'1515.2 1010.0 19.1
2014-Oct-23 02:00N 38°48' E 012°36'2626.0 1009.5 18.8
2014-Oct-23 01:00N 38°30' E 013°00'1918.5 1008.3 19.3
2014-Oct-23 00:00N 38°18' E 013°18'13 2.1 1008.4 19.1
2014-Oct-22 18:00N 38°06' E 013°24'1515.3 1008.6 21.5
2014-Oct-22 17:00N 38°18' E 013°12'2626.4 1007.2 21.5
2014-Oct-22 16:00N 38°30' E 012°42'2222.3 1007.9 21.8
2014-Oct-22 15:00N 38°42' E 012°18'2019.7 1008.2 22.1
2014-Oct-22 14:00N 38°48' E 011°54'2222.2 1008.4 21.9
2014-Oct-22 13:00N 39°00' E 011°30'2222.2 1008.9 21.8
2014-Oct-22 12:00N 39°12' E 011°06'1818.4 1009.9 21.6
2014-Oct-22 11:00N 39°24' E 010°48'3030.3 1010.8 22.0
2014-Oct-22 10:00N 39°48' E 010°24'2322.7 1010.7 21.5
2014-Oct-22 09:00N 40°06' E 010°06'2424.4 1009.2 19.5
2014-Oct-22 08:00N 40°30' E 010°00'3030.3 1007.7 19.5
2014-Oct-22 07:00N 41°00' E 009°54'2625.6 1005.4 19.2
2014-Oct-22 06:00N 41°24' E 009°42'2424.0 1005.4 20.1
2014-Oct-22 05:00N 41°48' E 009°42'2424.4 1006.3 22.2
2014-Oct-22 04:00N 42°12' E 009°48'2424.0 1005.6 22.6
2014-Oct-22 03:00N 42°36' E 009°48'2020.0 1001.6 21.9
2014-Oct-22 02:00N 42°54' E 010°00'2020.0 999.1 22.1
2014-Oct-22 01:00N 43°12' E 009°48'2222.3 1003.3 22.2
2014-Oct-22 00:00N 43°30' E 009°30'2222.2 1004.6 21.3
2014-Oct-21 23:00N 43°48' E 009°12'1918.5 1004.6 21.1
2014-Oct-21 22:00N 44°06' E 009°06'20 4.0 1004.8 20.7
2014-Oct-21 17:00N 44°24' E 008°54'1514.8 1009.3 21.9
2014-Oct-21 16:00N 44°12' E 009°06'2020.0 1009.2 22.2
2014-Oct-21 15:00N 43°54' E 009°18'2727.3 1010.4 22.3
2014-Oct-21 14:00N 43°30' E 009°36'2222.3 1010.3 22.3
2014-Oct-21 13:00N 43°12' E 009°54'1918.5 1012.7 22.7
2014-Oct-21 12:00N 42°54' E 010°00'2222.3 1014.0 23.8
2014-Oct-21 11:00N 42°36' E 010°18'2222.4 1015.3 24.4
2014-Oct-21 10:00N 42°18' E 010°36'2625.6 1015.3 23.4
2014-Oct-21 09:00N 41°54' E 010°48'2222.5 1015.7 23.2
2014-Oct-21 08:00N 41°36' E 011°06'2020.1 1014.9 22.1
2014-Oct-21 07:00N 41°18' E 011°18'2625.6 1016.2 22.4
2014-Oct-21 06:00N 40°54' E 011°30'2322.6 1016.2 22.8
2014-Oct-21 05:00N 40°36' E 011°48'2020.2 1016.6 22.7
2014-Oct-21 04:00N 40°18' E 012°00'2625.7 1017.6 22.1
2014-Oct-21 03:00N 39°54' E 012°12'2020.2 1018.3 22.0
2014-Oct-21 02:00N 39°36' E 012°24'2827.7 1019.0 21.8
2014-Oct-21 01:00N 39°12' E 012°42'2020.3 1019.6 21.8
2014-Oct-21 00:00N 38°54' E 012°54'2020.3 1020.1 22.2
2014-Oct-20 23:00N 38°36' E 013°06'2322.9 1020.2 21.9
2014-Oct-20 22:00N 38°18' E 013°24'12 0.4 1020.5 22.0
2014-Oct-19 17:00N 38°06' E 013°24'1212.0 1024.3 23.1
2014-Oct-19 16:00N 38°18' E 013°24'2322.9 1023.4 23.8
2014-Oct-19 15:00N 38°36' E 013°06'2020.3 1023.5 24.4
2014-Oct-19 14:00N 38°54' E 012°54'2322.8 1024.1 24.7
2014-Oct-19 13:00N 39°12' E 012°36'2322.8 1024.6 25.0
2014-Oct-19 12:00N 39°30' E 012°18'2827.7 1025.1 25.0
2014-Oct-19 11:00N 39°54' E 012°00'2020.2 1025.7 25.1
2014-Oct-19 10:00N 40°12' E 011°48'2322.6 1025.8 25.1
2014-Oct-19 09:00N 40°30' E 011°30'2322.6 1025.8 24.2
2014-Oct-19 08:00N 40°48' E 011°12'2827.6 1025.8 23.1
2014-Oct-19 07:00N 41°12' E 010°54'2020.1 1025.6 22.1
2014-Oct-19 06:00N 41°30' E 010°42'2222.5 1025.1 21.4
2014-Oct-19 05:00N 41°48' E 010°24'2222.4 1024.9 21.4
2014-Oct-19 04:00N 42°06' E 010°06'2625.6 1024.8 21.6
2014-Oct-19 03:00N 42°30' E 009°54'1918.5 1024.9 21.7
2014-Oct-19 02:00N 42°48' E 010°00'2424.4 1025.0 21.8
2014-Oct-19 01:00N 43°12' E 009°54'2222.3 1025.2 21.9
2014-Oct-19 00:00N 43°30' E 009°36'2222.2 1025.5 21.6
2014-Oct-18 23:00N 43°48' E 009°18'2020.0 1025.7 21.4
2014-Oct-18 22:00N 44°06' E 009°06'19 3.1 1025.8 21.2
2014-Oct-18 16:00N 44°24' E 009°00'2525.5 1024.3 22.8
2014-Oct-18 15:00N 44°00' E 009°12'2222.2 1024.0 23.9
2014-Oct-18 14:00N 43°42' E 009°30'2020.0 1024.0 24.3
2014-Oct-18 13:00N 43°24' E 009°42'2222.3 1024.1 24.6
2014-Oct-18 12:00N 43°06' E 010°00'2424.4 1024.0 24.1
2014-Oct-18 11:00N 42°42' E 010°06'2525.2 1024.5 24.1
2014-Oct-18 10:00N 42°24' E 010°30'2020.1 1024.2 24.0
2014-Oct-18 09:00N 42°06' E 010°42'2222.4 1023.9 24.2
2014-Oct-18 08:00N 41°48' E 011°00'2625.6 1023.4 23.5
2014-Oct-18 07:00N 41°24' E 011°12'2020.1 1022.8 23.4
2014-Oct-18 06:00N 41°06' E 011°24'2322.6 1021.7 22.6
2014-Oct-18 05:00N 40°48' E 011°42'2625.7 1021.6 22.2
2014-Oct-18 04:00N 40°24' E 011°54'2827.7 1021.6 22.3
2014-Oct-18 03:00N 40°00' E 012°12'4622.9 1021.2 22.7
2014-Oct-18 01:00N 39°18' E 012°36'5627.8 1021.2 23.1
2014-Oct-17 23:00N 38°30' E 013°12'2020.3 1021.9 23.3
2014-Oct-17 22:00N 38°12' E 013°24'6 1.2 1022.4 22.2
2014-Oct-17 17:00N 38°06' E 013°24'1818.0 1021.7 24.5
2014-Oct-17 16:00N 38°24' E 013°24'2626.0 1020.3 24.3
2014-Oct-17 15:00N 38°42' E 013°00'2625.8 1019.5 24.3
2014-Oct-17 14:00N 39°06' E 012°48'2322.8 1019.5 24.7
2014-Oct-17 13:00N 39°24' E 012°30'2625.7 1019.6 24.8
2014-Oct-17 12:00N 39°48' E 012°18'2322.7 1020.0 24.6
2014-Oct-17 11:00N 40°06' E 012°00'2020.2 1020.0 24.3
2014-Oct-17 10:00N 40°24' E 011°48'2625.7 1020.3 24.3
2014-Oct-17 09:00N 40°48' E 011°36'2322.6 1019.8 24.1
2014-Oct-17 08:00N 41°06' E 011°18'2020.1 1019.1 23.7
2014-Oct-17 07:00N 41°24' E 011°06'2625.6 1017.7 23.2
2014-Oct-17 06:00N 41°48' E 010°54'2020.1 1016.2 22.5
2014-Oct-17 05:00N 42°06' E 010°42'2020.1 1014.7 22.4
2014-Oct-17 04:00N 42°24' E 010°30'2525.2 1014.9 22.5
2014-Oct-17 03:00N 42°42' E 010°06'1918.5 1015.7 22.3
2014-Oct-17 02:00N 43°00' E 010°00'2020.0 1016.0 22.4
2014-Oct-17 01:00N 43°18' E 009°48'2222.2 1015.7 22.0
2014-Oct-17 00:00N 43°36' E 009°30'2222.2 1014.9 22.5
2014-Oct-16 23:00N 43°54' E 009°12'2625.5 1013.9 22.6
2014-Oct-16 22:00N 44°18' E 009°00'6 1.0 1014.2 22.1
2014-Oct-16 16:00N 44°24' E 009°00'5527.3 1015.0 22.2
2014-Oct-16 14:00N 43°36' E 009°36'2727.3 1014.7 22.5
2014-Oct-16 13:00N 43°12' E 009°54'2424.4 1015.3 23.4
2014-Oct-16 12:00N 42°48' E 010°00'2525.2 1014.9 22.7
2014-Oct-16 11:00N 42°30' E 010°24'2020.1 1016.5 24.3
2014-Oct-16 10:00N 42°12' E 010°36'2020.1 1015.9 23.5
2014-Oct-16 09:00N 41°54' E 010°48'4823.8 1015.0 22.6
2014-Oct-16 07:00N 41°12' E 011°18'2020.1 1015.1 23.1
2014-Oct-16 06:00N 40°54' E 011°30'2827.6 1015.2 23.4
2014-Oct-16 05:00N 40°30' E 011°48'2020.2 1014.9 23.1
2014-Oct-16 04:00N 40°12' E 012°00'4321.4 1014.6 23.0
2014-Oct-16 02:00N 39°36' E 012°30'4623.0 1014.7 23.1
2014-Oct-16 00:00N 38°54' E 012°54'2020.3 1016.4 23.8
2014-Oct-15 23:00N 38°36' E 013°06'2322.9 1016.6 24.3
2014-Oct-15 22:00N 38°18' E 013°24'12 2.4 1016.5 24.1
2014-Oct-15 17:00N 38°06' E 013°24'1212.0 1014.7 25.3
2014-Oct-15 16:00N 38°18' E 013°24'2322.9 1013.6 24.7
2014-Oct-15 15:00N 38°36' E 013°06'2020.3 1013.4 25.3
2014-Oct-15 14:00N 38°54' E 012°54'2827.8 1012.3 24.8
2014-Oct-15 13:00N 39°18' E 012°36'2020.2 1011.8 24.6
2014-Oct-15 12:00N 39°36' E 012°24'2625.7 1010.9 24.6
2014-Oct-15 11:00N 40°00' E 012°12'2322.7 1010.1 24.8
2014-Oct-15 10:00N 40°18' E 011°54'2020.2 1009.9 24.7
2014-Oct-15 09:00N 40°36' E 011°42'2625.7 1009.3 24.7
2014-Oct-15 08:00N 41°00' E 011°30'2020.1 1008.2 24.4
2014-Oct-15 07:00N 41°18' E 011°18'2020.1 1007.5 23.6
2014-Oct-15 06:00N 41°36' E 011°06'2727.5 1007.1 23.0
2014-Oct-15 05:00N 42°00' E 010°48'2020.1 1007.0 23.0
2014-Oct-15 04:00N 42°18' E 010°36'2222.4 1008.0 22.9
2014-Oct-15 03:00N 42°36' E 010°18'1817.9 1007.9 22.9
2014-Oct-15 02:00N 42°48' E 010°00'2424.4 1007.8 22.4
2014-Oct-15 01:00N 43°12' E 009°54'4422.2 1007.7 21.6
2014-Oct-14 23:00N 43°48' E 009°18'38 5.5 1009.7 22.0
2014-Oct-14 16:00N 44°24' E 009°00'2525.5 1010.0 20.4
2014-Oct-14 15:00N 44°00' E 009°12'2020.0 1009.7 21.2
2014-Oct-14 14:00N 43°42' E 009°24'2222.2 1010.5 22.5
2014-Oct-14 13:00N 43°24' E 009°42'2222.3 1010.2 23.0
2014-Oct-14 12:00N 43°06' E 010°00'2424.4 1011.2 24.4
2014-Oct-14 11:00N 42°42' E 010°06'2525.2 1012.2 24.1
2014-Oct-14 10:00N 42°24' E 010°30'2020.1 1012.5 24.0
2014-Oct-14 09:00N 42°06' E 010°42'2222.4 1012.4 24.1
2014-Oct-14 08:00N 41°48' E 011°00'2625.6 1012.8 23.7
2014-Oct-14 07:00N 41°24' E 011°12'2322.5 1012.6 22.8
2014-Oct-14 06:00N 41°06' E 011°30'2625.7 1012.0 22.9
2014-Oct-14 05:00N 40°42' E 011°42'2625.7 1012.7 23.3
2014-Oct-14 04:00N 40°18' E 011°54'2827.7 1013.3 23.6
2014-Oct-14 03:00N 39°54' E 012°12'2020.2 1013.9 23.5
2014-Oct-14 02:00N 39°36' E 012°24'2827.7 1014.0 23.5
2014-Oct-14 01:00N 39°12' E 012°42'2020.3 1014.5 23.5
2014-Oct-14 00:00N 38°54' E 012°54'2827.8 1014.8 23.8
2014-Oct-13 23:00N 38°30' E 013°12'2625.8 1014.9 24.1
2014-Oct-13 22:00N 38°06' E 013°24'   1015.1 23.8
Track history (hours):
 
Tides and Currents Weather Stations Pressure Air Temp Water Temp Dewpoint Dewpoint Depression Visibility Wind Speed Wind Dir Waves Ship Positions

Callsign BAREU51 (name unknown)

Last reported at 2014-Oct-23 19:00 UTC. Time now 2014-Oct-23 21:18 UTC.
Position N 44°24' E 008°54'.

Barometer 1010.5 mb
Air temperature 19.3 ° C

Date/timePositionNaut miles runAvg speedWind from/ knotsBaromVisibWave heightAir tempDewpointWater temp
2014-Oct-23 19:00N 44°24' E 008°54'1514.8 1010.5 19.3
2014-Oct-23 18:00N 44°12' E 009°06'2524.7 1009.2 22.2
2014-Oct-23 17:00N 44°00' E 009°36'3030.3 1008.0 22.3
2014-Oct-23 16:00N 43°30' E 009°42'2222.3 1007.6 22.4
2014-Oct-23 15:00N 43°12' E 010°00'3030.0 1007.2 22.6
2014-Oct-23 14:00N 42°42' E 010°00'2424.4 1006.7 20.4
2014-Oct-23 13:00N 42°18' E 009°54'2424.0 1006.8 21.1
2014-Oct-23 12:00N 41°54' E 009°54'3030.3 1009.5 21.1
2014-Oct-23 11:00N 41°24' E 009°48'2424.4 1007.4 18.6
2014-Oct-23 10:00N 41°00' E 009°54'2827.6 1009.1 19.6
2014-Oct-23 09:00N 40°36' E 010°12'2322.6 1009.6 19.0
2014-Oct-23 08:00N 40°18' E 010°30'2625.7 1010.8 18.9
2014-Oct-23 07:00N 40°00' E 010°54'3030.3 1010.6 19.8
2014-Oct-23 06:00N 39°36' E 011°18'1818.4 1010.1 18.8
2014-Oct-23 05:00N 39°24' E 011°36'2322.8 1010.4 18.7
2014-Oct-23 04:00N 39°06' E 011°54'2222.2 1009.9 19.1
2014-Oct-23 03:00N 38°54' E 012°18'1515.2 1010.0 19.1
2014-Oct-23 02:00N 38°48' E 012°36'2626.0 1009.5 18.8
2014-Oct-23 01:00N 38°30' E 013°00'1918.5 1008.3 19.3
2014-Oct-23 00:00N 38°18' E 013°18'13 2.1 1008.4 19.1
2014-Oct-22 18:00N 38°06' E 013°24'1515.3 1008.6 21.5
2014-Oct-22 17:00N 38°18' E 013°12'2626.4 1007.2 21.5
2014-Oct-22 16:00N 38°30' E 012°42'2222.3 1007.9 21.8
2014-Oct-22 15:00N 38°42' E 012°18'2019.7 1008.2 22.1
2014-Oct-22 14:00N 38°48' E 011°54'2222.2 1008.4 21.9
2014-Oct-22 13:00N 39°00' E 011°30'2222.2 1008.9 21.8
2014-Oct-22 12:00N 39°12' E 011°06'1818.4 1009.9 21.6
2014-Oct-22 11:00N 39°24' E 010°48'3030.3 1010.8 22.0
2014-Oct-22 10:00N 39°48' E 010°24'2322.7 1010.7 21.5
2014-Oct-22 09:00N 40°06' E 010°06'2424.4 1009.2 19.5
2014-Oct-22 08:00N 40°30' E 010°00'3030.3 1007.7 19.5
2014-Oct-22 07:00N 41°00' E 009°54'2625.6 1005.4 19.2
2014-Oct-22 06:00N 41°24' E 009°42'2424.0 1005.4 20.1
2014-Oct-22 05:00N 41°48' E 009°42'2424.4 1006.3 22.2
2014-Oct-22 04:00N 42°12' E 009°48'2424.0 1005.6 22.6
2014-Oct-22 03:00N 42°36' E 009°48'2020.0 1001.6 21.9
2014-Oct-22 02:00N 42°54' E 010°00'2020.0 999.1 22.1
2014-Oct-22 01:00N 43°12' E 009°48'2222.3 1003.3 22.2
2014-Oct-22 00:00N 43°30' E 009°30'2222.2 1004.6 21.3
2014-Oct-21 23:00N 43°48' E 009°12'1918.5 1004.6 21.1
2014-Oct-21 22:00N 44°06' E 009°06'20 4.0 1004.8 20.7
2014-Oct-21 17:00N 44°24' E 008°54'1514.8 1009.3 21.9
2014-Oct-21 16:00N 44°12' E 009°06'2020.0 1009.2 22.2
2014-Oct-21 15:00N 43°54' E 009°18'2727.3 1010.4 22.3
2014-Oct-21 14:00N 43°30' E 009°36'2222.3 1010.3 22.3
2014-Oct-21 13:00N 43°12' E 009°54'1918.5 1012.7 22.7
2014-Oct-21 12:00N 42°54' E 010°00'2222.3 1014.0 23.8
2014-Oct-21 11:00N 42°36' E 010°18'2222.4 1015.3 24.4
2014-Oct-21 10:00N 42°18' E 010°36'2625.6 1015.3 23.4
2014-Oct-21 09:00N 41°54' E 010°48'2222.5 1015.7 23.2
2014-Oct-21 08:00N 41°36' E 011°06'2020.1 1014.9 22.1
2014-Oct-21 07:00N 41°18' E 011°18'2625.6 1016.2 22.4
2014-Oct-21 06:00N 40°54' E 011°30'2322.6 1016.2 22.8
2014-Oct-21 05:00N 40°36' E 011°48'2020.2 1016.6 22.7
2014-Oct-21 04:00N 40°18' E 012°00'2625.7 1017.6 22.1
2014-Oct-21 03:00N 39°54' E 012°12'2020.2 1018.3 22.0
2014-Oct-21 02:00N 39°36' E 012°24'2827.7 1019.0 21.8
2014-Oct-21 01:00N 39°12' E 012°42'2020.3 1019.6 21.8
2014-Oct-21 00:00N 38°54' E 012°54'2020.3 1020.1 22.2
2014-Oct-20 23:00N 38°36' E 013°06'2322.9 1020.2 21.9
2014-Oct-20 22:00N 38°18' E 013°24'12 0.4 1020.5 22.0
2014-Oct-19 17:00N 38°06' E 013°24'1212.0 1024.3 23.1
2014-Oct-19 16:00N 38°18' E 013°24'2322.9 1023.4 23.8
2014-Oct-19 15:00N 38°36' E 013°06'2020.3 1023.5 24.4
2014-Oct-19 14:00N 38°54' E 012°54'2322.8 1024.1 24.7
2014-Oct-19 13:00N 39°12' E 012°36'2322.8 1024.6 25.0
2014-Oct-19 12:00N 39°30' E 012°18'2827.7 1025.1 25.0
2014-Oct-19 11:00N 39°54' E 012°00'2020.2 1025.7 25.1
2014-Oct-19 10:00N 40°12' E 011°48'2322.6 1025.8 25.1
2014-Oct-19 09:00N 40°30' E 011°30'2322.6 1025.8 24.2
2014-Oct-19 08:00N 40°48' E 011°12'2827.6 1025.8 23.1
2014-Oct-19 07:00N 41°12' E 010°54'2020.1 1025.6 22.1
2014-Oct-19 06:00N 41°30' E 010°42'2222.5 1025.1 21.4
2014-Oct-19 05:00N 41°48' E 010°24'2222.4 1024.9 21.4
2014-Oct-19 04:00N 42°06' E 010°06'2625.6 1024.8 21.6
2014-Oct-19 03:00N 42°30' E 009°54'1918.5 1024.9 21.7
2014-Oct-19 02:00N 42°48' E 010°00'2424.4 1025.0 21.8
2014-Oct-19 01:00N 43°12' E 009°54'2222.3 1025.2 21.9
2014-Oct-19 00:00N 43°30' E 009°36'2222.2 1025.5 21.6
2014-Oct-18 23:00N 43°48' E 009°18'2020.0 1025.7 21.4
2014-Oct-18 22:00N 44°06' E 009°06'19 3.1 1025.8 21.2
2014-Oct-18 16:00N 44°24' E 009°00'2525.5 1024.3 22.8
2014-Oct-18 15:00N 44°00' E 009°12'2222.2 1024.0 23.9
2014-Oct-18 14:00N 43°42' E 009°30'2020.0 1024.0 24.3
2014-Oct-18 13:00N 43°24' E 009°42'2222.3 1024.1 24.6
2014-Oct-18 12:00N 43°06' E 010°00'2424.4 1024.0 24.1
2014-Oct-18 11:00N 42°42' E 010°06'2525.2 1024.5 24.1
2014-Oct-18 10:00N 42°24' E 010°30'2020.1 1024.2 24.0
2014-Oct-18 09:00N 42°06' E 010°42'2222.4 1023.9 24.2
2014-Oct-18 08:00N 41°48' E 011°00'2625.6 1023.4 23.5
2014-Oct-18 07:00N 41°24' E 011°12'2020.1 1022.8 23.4
2014-Oct-18 06:00N 41°06' E 011°24'2322.6 1021.7 22.6
2014-Oct-18 05:00N 40°48' E 011°42'2625.7 1021.6 22.2
2014-Oct-18 04:00N 40°24' E 011°54'2827.7 1021.6 22.3
2014-Oct-18 03:00N 40°00' E 012°12'4622.9 1021.2 22.7
2014-Oct-18 01:00N 39°18' E 012°36'5627.8 1021.2 23.1
2014-Oct-17 23:00N 38°30' E 013°12'2020.3 1021.9 23.3
2014-Oct-17 22:00N 38°12' E 013°24'6 1.2 1022.4 22.2
2014-Oct-17 17:00N 38°06' E 013°24'1818.0 1021.7 24.5
2014-Oct-17 16:00N 38°24' E 013°24'2626.0 1020.3 24.3
2014-Oct-17 15:00N 38°42' E 013°00'2625.8 1019.5 24.3
2014-Oct-17 14:00N 39°06' E 012°48'2322.8 1019.5 24.7
2014-Oct-17 13:00N 39°24' E 012°30'2625.7 1019.6 24.8
2014-Oct-17 12:00N 39°48' E 012°18'2322.7 1020.0 24.6
2014-Oct-17 11:00N 40°06' E 012°00'2020.2 1020.0 24.3
2014-Oct-17 10:00N 40°24' E 011°48'2625.7 1020.3 24.3
2014-Oct-17 09:00N 40°48' E 011°36'2322.6 1019.8 24.1
2014-Oct-17 08:00N 41°06' E 011°18'2020.1 1019.1 23.7
2014-Oct-17 07:00N 41°24' E 011°06'2625.6 1017.7 23.2
2014-Oct-17 06:00N 41°48' E 010°54'2020.1 1016.2 22.5
2014-Oct-17 05:00N 42°06' E 010°42'2020.1 1014.7 22.4
2014-Oct-17 04:00N 42°24' E 010°30'2525.2 1014.9 22.5
2014-Oct-17 03:00N 42°42' E 010°06'1918.5 1015.7 22.3
2014-Oct-17 02:00N 43°00' E 010°00'2020.0 1016.0 22.4
2014-Oct-17 01:00N 43°18' E 009°48'2222.2 1015.7 22.0
2014-Oct-17 00:00N 43°36' E 009°30'2222.2 1014.9 22.5
2014-Oct-16 23:00N 43°54' E 009°12'2625.5 1013.9 22.6
2014-Oct-16 22:00N 44°18' E 009°00'6 1.0 1014.2 22.1
2014-Oct-16 16:00N 44°24' E 009°00'5527.3 1015.0 22.2
2014-Oct-16 14:00N 43°36' E 009°36'2727.3 1014.7 22.5
2014-Oct-16 13:00N 43°12' E 009°54'2424.4 1015.3 23.4
2014-Oct-16 12:00N 42°48' E 010°00'2525.2 1014.9 22.7
2014-Oct-16 11:00N 42°30' E 010°24'2020.1 1016.5 24.3
2014-Oct-16 10:00N 42°12' E 010°36'2020.1 1015.9 23.5
2014-Oct-16 09:00N 41°54' E 010°48'4823.8 1015.0 22.6
2014-Oct-16 07:00N 41°12' E 011°18'2020.1 1015.1 23.1
2014-Oct-16 06:00N 40°54' E 011°30'2827.6 1015.2 23.4
2014-Oct-16 05:00N 40°30' E 011°48'2020.2 1014.9 23.1
2014-Oct-16 04:00N 40°12' E 012°00'4321.4 1014.6 23.0
2014-Oct-16 02:00N 39°36' E 012°30'4623.0 1014.7 23.1
2014-Oct-16 00:00N 38°54' E 012°54'2020.3 1016.4 23.8
2014-Oct-15 23:00N 38°36' E 013°06'2322.9 1016.6 24.3
2014-Oct-15 22:00N 38°18' E 013°24'12 2.4 1016.5 24.1
2014-Oct-15 17:00N 38°06' E 013°24'1212.0 1014.7 25.3
2014-Oct-15 16:00N 38°18' E 013°24'2322.9 1013.6 24.7
2014-Oct-15 15:00N 38°36' E 013°06'2020.3 1013.4 25.3
2014-Oct-15 14:00N 38°54' E 012°54'2827.8 1012.3 24.8
2014-Oct-15 13:00N 39°18' E 012°36'2020.2 1011.8 24.6
2014-Oct-15 12:00N 39°36' E 012°24'2625.7 1010.9 24.6
2014-Oct-15 11:00N 40°00' E 012°12'2322.7 1010.1 24.8
2014-Oct-15 10:00N 40°18' E 011°54'2020.2 1009.9 24.7
2014-Oct-15 09:00N 40°36' E 011°42'2625.7 1009.3 24.7
2014-Oct-15 08:00N 41°00' E 011°30'2020.1 1008.2 24.4
2014-Oct-15 07:00N 41°18' E 011°18'2020.1 1007.5 23.6
2014-Oct-15 06:00N 41°36' E 011°06'2727.5 1007.1 23.0
2014-Oct-15 05:00N 42°00' E 010°48'2020.1 1007.0 23.0
2014-Oct-15 04:00N 42°18' E 010°36'2222.4 1008.0 22.9
2014-Oct-15 03:00N 42°36' E 010°18'1817.9 1007.9 22.9
2014-Oct-15 02:00N 42°48' E 010°00'2424.4 1007.8 22.4
2014-Oct-15 01:00N 43°12' E 009°54'4422.2 1007.7 21.6
2014-Oct-14 23:00N 43°48' E 009°18'38 5.5 1009.7 22.0
2014-Oct-14 16:00N 44°24' E 009°00'2525.5 1010.0 20.4
2014-Oct-14 15:00N 44°00' E 009°12'2020.0 1009.7 21.2
2014-Oct-14 14:00N 43°42' E 009°24'2222.2 1010.5 22.5
2014-Oct-14 13:00N 43°24' E 009°42'2222.3 1010.2 23.0
2014-Oct-14 12:00N 43°06' E 010°00'2424.4 1011.2 24.4
2014-Oct-14 11:00N 42°42' E 010°06'2525.2 1012.2 24.1
2014-Oct-14 10:00N 42°24' E 010°30'2020.1 1012.5 24.0
2014-Oct-14 09:00N 42°06' E 010°42'2222.4 1012.4 24.1
2014-Oct-14 08:00N 41°48' E 011°00'2625.6 1012.8 23.7
2014-Oct-14 07:00N 41°24' E 011°12'2322.5 1012.6 22.8
2014-Oct-14 06:00N 41°06' E 011°30'2625.7 1012.0 22.9
2014-Oct-14 05:00N 40°42' E 011°42'2625.7 1012.7 23.3
2014-Oct-14 04:00N 40°18' E 011°54'2827.7 1013.3 23.6
2014-Oct-14 03:00N 39°54' E 012°12'2020.2 1013.9 23.5
2014-Oct-14 02:00N 39°36' E 012°24'2827.7 1014.0 23.5
2014-Oct-14 01:00N 39°12' E 012°42'2020.3 1014.5 23.5
2014-Oct-14 00:00N 38°54' E 012°54'2827.8 1014.8 23.8
2014-Oct-13 23:00N 38°30' E 013°12'2625.8 1014.9 24.1
2014-Oct-13 22:00N 38°06' E 013°24'   1015.1 23.8

Dump ship's entire track history